CheckWX is a tool to help pilots better visualize weather data.  It is not intended as a substitute for an official pre-flight weather briefing.

23:29:05 UTC

EGNX TAF
East Midlands Airport
Nottingham, United Kingdom
TAF EGNX 082258Z 0900/0924 20008KT 9999 BKN012 TEMPO 0900/0924 4000 -RADZ BKN003 PROB30 TEMPO 0900/0924 1400 RADZ BKN001 BECMG 0909/0912 03010KT BECMG 0921/0924 33005KT

Jul-9@
00:00 UTC

Jul-9 @ 00:00 UTC

Jul-9@
09:00 UTC

Jul-9 @ 09:00 UTC

TAF EGNX 082258Z 0900/0924 20008KT 9999 BKN012

Expired

Wind
  • 200° at 8 KTS
Cloud Levels
  • Broken at 1,200' AGL

Jul-9@
00:00 UTC

Jul-9 @ 00:00 UTC

Jul-10@
00:00 UTC

Jul-10 @ 00:00 UTC

TEMPO 0900/0924 4000 -RADZ BKN003

Temporary

Temporary Changes expected for less than half the time period

Conditions
Light Rain, Light Drizzle
Cloud Levels
  • Broken at 300' AGL

Jul-9@
00:00 UTC

Jul-9 @ 00:00 UTC

Jul-10@
00:00 UTC

Jul-10 @ 00:00 UTC

PROB30 TEMPO 0900/0924 1400 RADZ BKN001

Temporary - 30% Likelihood

Temporary - 30% Likelihood during this time.

Conditions
Rain, Drizzle
Cloud Levels
  • Broken at 100' AGL

Jul-9@
09:00 UTC

Jul-9 @ 09:00 UTC

Jul-9@
21:00 UTC

Jul-9 @ 21:00 UTC

BECMG 0909/0912 03010KT

Expired

Wind
  • 030° at 10 KTS
Cloud Levels
  • Broken at 1,200' AGL

Jul-9@
21:00 UTC

Jul-9 @ 21:00 UTC

Jul-10@
00:00 UTC

Jul-10 @ 00:00 UTC

BECMG 0921/0924 33005KT

Becoming

Becoming Conditions expected by Fri, Jul 10, 2020 @ 00:00 UTC

Wind
  • 330° at 5 KTS
Cloud Levels
  • Broken at 1,200' AGL